Haacht, Belgium
Current Conditions -  °F | °C
As of 12:20 PM on Tuesday 21 Oct 2014 (Local Time) from EBBR Reporting Station
Rain Showers Rain Showers  
Wind Chill: 55°   Ceiling: 1700
Heat Index: 55°   Visibility: 3mi
Dew Point: 50°   Wind: 22mph
Humidity: 82%   Direction: 220°SW
Pressure: 29.62"   Gusts: NA
Location:  50.98°N, 4.64°E
Report Text: EBBR 211020Z 22019KT 5000 -SHRA FEW014 BKN017 13/10 Q1003 TEMPO 21018G30KT
Loading
Personal Weather Stations






























Interactive Weather Map
Tropical Storm Tracking
New forecast layout! Learn more

10-Day Weather Forecast

Advertisements
Track Severe Weather on mobile